Time;durP1;ratioP1;P1;durP2;ratioP2;P2;SDS_P1;SDS_P2;PMS_P1;PMS_P2;Temp;Humidity;BMP_temperature;BMP_pressure;BME280_temperature;BME280_humidity;BME280_pressure;Samples;Min_cycle;Max_cycle;Signal;HPM_P1;HPM_P2
2022/11/25 00:01:10;;;;;;;12.20;3.25;;;;;;;7.30;100.00;100996.97;6278998;22;20367;-74
2022/11/25 00:03:38;;;;;;;14.57;3.00;;;;;;;7.29;100.00;100982.25;6278672;22;20100;-74
2022/11/25 00:06:08;;;;;;;12.25;3.13;;;;;;;7.28;100.00;100980.75;6279173;22;20020;-74
2022/11/25 00:08:35;;;;;;;9.43;2.75;;;;;;;7.26;100.00;100986.44;6278297;22;20099;-74
2022/11/25 00:11:03;;;;;;;17.33;3.47;;;;;;;7.25;100.00;100981.56;6278489;22;20012;-74
2022/11/25 00:13:30;;;;;;;11.88;3.17;;;;;;;7.23;100.00;100975.94;6278617;22;20020;-74
2022/11/25 00:16:01;;;;;;;5.07;2.42;;;;;;;7.24;100.00;100972.88;6278836;22;20461;-74
2022/11/25 00:18:28;;;;;;;9.85;2.80;;;;;;;7.24;100.00;100969.47;6278693;22;20038;-74
2022/11/25 00:20:54;;;;;;;11.23;3.25;;;;;;;7.24;100.00;100967.56;6251972;22;20460;-74
2022/11/25 00:23:21;;;;;;;14.75;3.13;;;;;;;7.23;100.00;100968.72;6278744;22;20476;-74
2022/11/25 00:25:47;;;;;;;7.78;3.28;;;;;;;7.22;100.00;100961.94;6278113;22;20445;-74
2022/11/25 00:28:14;;;;;;;13.23;2.78;;;;;;;7.24;100.00;100964.19;6278766;22;20095;-74
2022/11/25 00:30:40;;;;;;;21.77;3.45;;;;;;;7.23;100.00;100963.44;6251019;22;20346;-74
2022/11/25 00:33:07;;;;;;;16.17;3.35;;;;;;;7.24;100.00;100967.56;6278781;22;20012;-74
2022/11/25 00:35:34;;;;;;;10.35;3.17;;;;;;;7.24;100.00;100959.63;6278595;22;20438;-74
2022/11/25 00:38:01;;;;;;;10.20;3.03;;;;;;;7.24;100.00;100959.63;6278788;22;20016;-74
2022/11/25 00:40:30;;;;;;;10.68;3.25;;;;;;;7.23;100.00;100958.13;6250052;22;20478;-75
2022/11/25 00:45:42;;;;;;;9.68;3.17;;;;;;;7.24;100.00;100967.56;6255042;22;20024;-74
2022/11/25 00:48:08;;;;;;;8.82;2.75;;;;;;;7.24;100.00;100956.25;6282320;22;20090;-74
2022/11/25 00:50:35;;;;;;;9.00;3.00;;;;;;;7.24;100.00;100964.19;6281880;22;20470;-74
2022/11/25 00:53:01;;;;;;;7.78;2.80;;;;;;;7.24;100.00;100954.34;6282277;22;20016;-74
2022/11/25 00:56:11;;;;;;;12.40;3.25;;;;;;;7.24;100.00;100951.69;6281229;22;20429;-74
2022/11/25 00:58:14;;;;;;;13.02;2.95;;;;;;;7.25;100.00;100950.53;6281803;22;20079;-75
2022/11/25 01:00:40;;;;;;;10.20;2.53;;;;;;;7.25;100.00;100950.53;6281689;22;20168;-75
2022/11/25 01:03:07;;;;;;;13.18;3.20;;;;;;;7.28;100.00;100947.06;6254868;22;20421;-75
2022/11/25 01:05:33;;;;;;;7.18;3.28;;;;;;;7.28;100.00;100952.38;6254380;22;20020;-75
2022/11/25 01:08:00;;;;;;;12.90;3.50;;;;;;;7.28;100.00;100944.41;6281317;22;20020;-75
2022/11/25 01:10:26;;;;;;;11.43;2.97;;;;;;;7.30;100.00;100941.34;6281818;22;20020;-75
2022/11/25 01:12:52;;;;;;;8.00;2.13;;;;;;;7.31;100.00;100942.84;6281950;22;20406;-74
2022/11/25 01:15:19;;;;;;;10.73;2.75;;;;;;;7.31;100.00;100943.59;6254240;22;20020;-74
2022/11/25 01:17:45;;;;;;;10.73;3.15;;;;;;;7.33;100.00;100945.84;6254627;22;20474;-75
2022/11/25 01:20:15;;;;;;;11.68;3.10;;;;;;;7.35;100.00;100943.53;6254746;22;20050;-75
2022/11/25 01:22:41;;;;;;;10.80;3.15;;;;;;;7.35;100.00;100940.88;6253611;22;20425;-75
2022/11/25 01:25:08;;;;;;;14.07;3.15;;;;;;;7.36;100.00;100950.31;6282053;22;20036;-75
2022/11/25 01:27:34;;;;;;;10.93;2.72;;;;;;;7.36;100.00;100951.06;6281583;22;20024;-75
2022/11/25 01:30:01;;;;;;;14.10;2.70;;;;;;;7.38;100.00;100949.91;6281849;22;20016;-74
2022/11/25 01:32:27;;;;;;;8.73;2.95;;;;;;;7.38;100.00;100952.56;6281669;22;20012;-74
2022/11/25 01:34:53;;;;;;;12.15;2.75;;;;;;;7.39;100.00;100962.00;6254814;22;20048;-75
2022/11/25 01:37:20;;;;;;;14.02;3.70;;;;;;;7.39;100.00;100956.69;6254150;22;20319;-74
2022/11/25 01:39:46;;;;;;;9.75;2.72;;;;;;;7.42;100.00;100961.91;6254647;22;20016;-75
2022/11/25 01:42:13;;;;;;;9.82;2.88;;;;;;;7.42;100.00;100963.81;6281459;22;20079;-74
2022/11/25 01:44:41;;;;;;;9.80;2.60;;;;;;;7.44;100.00;100964.91;6254181;22;20020;-74
2022/11/25 01:47:23;;;;;;;12.50;3.05;;;;;;;7.46;100.00;100972.44;6281960;22;20083;-75
2022/11/25 01:50:03;;;;;;;7.30;2.50;;;;;;;7.45;100.00;100971.69;6281918;22;20070;-74
2022/11/25 01:52:34;;;;;;;10.02;2.95;;;;;;;7.46;100.00;100972.44;6280974;22;20019;-74
2022/11/25 01:55:09;;;;;;;11.30;2.78;;;;;;;7.46;100.00;100975.81;6254656;22;20024;-74
2022/11/25 01:57:42;;;;;;;10.15;3.28;;;;;;;7.46;100.00;100973.19;6281622;22;20012;-74
2022/11/25 02:00:09;;;;;;;11.05;3.20;;;;;;;7.47;100.00;100984.53;6281966;22;20023;-74
2022/11/25 02:02:46;;;;;;;12.05;2.97;;;;;;;7.48;100.00;100988.66;6281923;22;20086;-74
2022/11/25 02:05:17;;;;;;;10.13;2.88;;;;;;;7.48;100.00;100984.09;6281886;22;20020;-75
2022/11/25 02:07:47;;;;;;;7.28;2.85;;;;;;;7.49;100.00;100996.19;6281401;22;20026;-74
2022/11/25 02:10:18;;;;;;;14.70;2.92;;;;;;;7.49;100.00;100990.16;6254344;22;20016;-74
2022/11/25 02:12:47;;;;;;;9.63;2.92;;;;;;;7.50;100.00;100994.28;6278992;22;20020;-75
2022/11/25 02:15:14;;;;;;;15.63;3.70;;;;;;;7.49;100.00;100993.56;6280290;22;20016;-74
2022/11/25 02:17:44;;;;;;;14.80;3.08;;;;;;;7.50;100.00;100997.69;6251614;22;20016;-74
2022/11/25 02:20:13;;;;;;;11.73;3.25;;;;;;;7.52;100.00;100991.97;6254100;22;20020;-74
2022/11/25 02:23:08;;;;;;;13.65;3.08;;;;;;;7.53;100.00;101001.44;6279914;22;20424;-75
2022/11/25 02:25:39;;;;;;;9.48;3.15;;;;;;;7.52;100.00;100992.72;6228952;22;20925;-74
2022/11/25 02:28:18;;;;;;;11.82;3.05;;;;;;;7.52;100.00;100990.09;6254019;22;20020;-74
2022/11/25 02:30:45;;;;;;;14.15;2.92;;;;;;;7.53;100.00;100996.13;6254449;22;20016;-74
2022/11/25 02:33:13;;;;;;;9.75;3.15;;;;;;;7.54;100.00;100997.63;6254321;22;20024;-74
2022/11/25 02:35:45;;;;;;;10.25;2.97;;;;;;;7.56;100.00;100993.41;6280904;22;20017;-74
2022/11/25 02:38:17;;;;;;;13.65;3.28;;;;;;;7.57;100.00;100989.59;6254503;22;20432;-74
2022/11/25 02:40:48;;;;;;;14.15;3.38;;;;;;;7.57;100.00;100991.50;6281339;22;20013;-74
2022/11/25 02:43:15;;;;;;;12.40;3.00;;;;;;;7.58;100.00;100988.44;6254350;22;20016;-75
2022/11/25 02:45:55;;;;;;;12.02;3.72;;;;;;;7.59;100.00;100979.34;6254162;22;20099;-74
2022/11/25 02:48:23;;;;;;;17.63;3.25;;;;;;;7.60;100.00;100964.91;6281252;22;20386;-75
2022/11/25 02:51:12;;;;;;;14.00;3.22;;;;;;;7.61;100.00;100966.38;6253986;22;20023;-74
2022/11/25 02:53:39;;;;;;;6.20;2.58;;;;;;;7.63;100.00;100958.78;6281393;22;20432;-74
2022/11/25 02:56:07;;;;;;;9.68;3.13;;;;;;;7.65;100.00;100979.56;6254147;22;20031;-75
2022/11/25 02:58:33;;;;;;;4.75;2.53;;;;;;;7.66;100.00;100973.84;6253717;22;20438;-74
2022/11/25 03:01:00;;;;;;;13.27;3.22;;;;;;;7.68;100.00;100978.75;6254124;22;20020;-74
2022/11/25 03:03:26;;;;;;;14.73;2.88;;;;;;;7.68;100.00;100978.75;6280669;22;20055;-74
2022/11/25 03:05:53;;;;;;;13.57;2.80;;;;;;;7.69;100.00;100990.84;6253877;22;20025;-75
2022/11/25 03:08:20;;;;;;;10.15;2.88;;;;;;;7.72;100.00;100991.91;6281416;22;20020;-75
2022/11/25 03:10:47;;;;;;;14.63;3.08;;;;;;;7.72;100.00;101000.59;6253871;22;20027;-74
2022/11/25 03:13:15;;;;;;;9.18;3.17;;;;;;;7.72;100.00;101005.91;6281323;22;20469;-74
2022/11/25 03:15:42;;;;;;;11.98;2.78;;;;;;;7.73;100.00;100999.44;6254269;22;20103;-74
2022/11/25 03:18:08;;;;;;;9.77;2.92;;;;;;;7.76;100.00;100984.63;6254531;22;20019;-75
2022/11/25 03:20:35;;;;;;;8.63;3.03;;;;;;;7.77;100.00;100980.81;6280809;22;20478;-75
2022/11/25 03:23:03;;;;;;;9.77;3.30;;;;;;;7.77;100.00;100980.81;6254044;22;20100;-75
2022/11/25 03:25:30;;;;;;;10.85;3.35;;;;;;;7.79;100.00;100981.16;6281110;22;20020;-75
2022/11/25 03:27:57;;;;;;;8.57;2.80;;;;;;;7.80;100.00;100991.34;6254169;22;20020;-75
2022/11/25 03:30:25;;;;;;;15.35;3.40;;;;;;;7.81;100.00;100989.44;6281157;22;20016;-75
2022/11/25 03:32:55;;;;;;;9.95;3.08;;;;;;;7.80;100.00;100990.59;6253398;22;20044;-75
2022/11/25 03:35:24;;;;;;;9.68;2.95;;;;;;;7.81;100.00;101000.03;6253182;22;20016;-75
2022/11/25 03:37:52;;;;;;;11.15;2.42;;;;;;;7.80;100.00;101017.09;6253622;22;20460;-75
2022/11/25 03:40:18;;;;;;;13.52;2.60;;;;;;;7.80;100.00;101012.53;6253657;22;20119;-75
2022/11/25 03:42:45;;;;;;;10.23;2.95;;;;;;;7.80;100.00;101017.09;6253609;22;20031;-75
2022/11/25 03:45:13;;;;;;;9.77;2.80;;;;;;;7.80;100.00;101014.44;6253460;22;20413;-75
2022/11/25 03:47:43;;;;;;;12.00;2.65;;;;;;;7.80;100.00;101014.44;6252824;22;20103;-75
2022/11/25 03:50:12;;;;;;;13.57;3.17;;;;;;;7.79;100.00;101013.69;6253831;22;20030;-76
2022/11/25 03:52:38;;;;;;;10.63;2.60;;;;;;;7.78;100.00;101014.84;6280704;22;20493;-75
2022/11/25 03:55:08;;;;;;;8.88;3.30;;;;;;;7.78;100.00;101014.13;6253678;22;20063;-75
2022/11/25 03:57:36;;;;;;;6.15;2.55;;;;;;;7.77;100.00;101026.63;6228642;22;20029;-75
2022/11/25 04:00:03;;;;;;;9.13;3.35;;;;;;;7.77;100.00;101020.56;6254045;22;20020;-75
2022/11/25 04:02:43;;;;;;;11.20;2.88;;;;;;;7.77;100.00;101031.16;6280640;22;20024;-75
2022/11/25 04:05:11;;;;;;;9.95;2.85;;;;;;;7.76;100.00;101025.13;6253741;22;20031;-76
2022/11/25 04:07:38;;;;;;;8.75;2.90;;;;;;;7.75;100.00;101025.53;6280965;22;20023;-75
2022/11/25 04:10:07;;;;;;;6.15;2.40;;;;;;;7.75;100.00;101028.19;6253646;22;20471;-76
2022/11/25 04:12:46;;;;;;;14.88;2.80;;;;;;;7.75;100.00;101030.84;6253322;22;20437;-76
2022/11/25 04:15:19;;;;;;;7.55;2.58;;;;;;;7.73;100.00;101031.25;6253347;22;20079;-75
2022/11/25 04:17:50;;;;;;;7.82;2.65;;;;;;;7.72;100.00;101036.97;6253425;22;20039;-75
2022/11/25 04:20:17;;;;;;;10.93;2.53;;;;;;;7.70;100.00;101040.75;6253718;22;20024;-75
2022/11/25 04:22:49;;;;;;;8.57;3.13;;;;;;;7.70;100.00;101043.41;6253760;22;20013;-75
2022/11/25 04:25:18;;;;;;;8.35;2.60;;;;;;;7.71;100.00;101049.47;6253174;22;20506;-76
2022/11/25 04:27:45;;;;;;;8.32;2.40;;;;;;;7.70;100.00;101053.28;6281130;22;20013;-75
2022/11/25 04:30:14;;;;;;;7.95;3.08;;;;;;;7.69;100.00;101044.56;6253232;22;20020;-75
2022/11/25 04:32:42;;;;;;;7.55;2.33;;;;;;;7.69;100.00;101047.22;6252879;22;20353;-75
2022/11/25 04:35:10;;;;;;;10.73;2.33;;;;;;;7.69;100.00;101047.22;6253452;22;20111;-75
2022/11/25 04:37:38;;;;;;;5.93;1.88;;;;;;;7.68;100.00;101061.63;6253407;22;20016;-75
2022/11/25 04:40:06;;;;;;;9.35;2.08;;;;;;;7.65;100.00;101057.16;6280750;22;20016;-75
2022/11/25 04:42:36;;;;;;;5.53;2.17;;;;;;;7.65;100.00;101057.16;6252643;22;20101;-75
2022/11/25 04:45:10;;;;;;;3.33;2.20;;;;;;;7.64;100.00;101062.84;6252533;22;20143;-75
2022/11/25 04:47:55;;;;;;;6.47;2.03;;;;;;;7.60;100.00;101062.94;6253784;22;20090;-75
2022/11/25 04:50:23;;;;;;;6.50;1.67;;;;;;;7.57;100.00;101066.44;6253060;22;20024;-75
2022/11/25 04:53:07;;;;;;;6.07;1.63;;;;;;;7.56;100.00;101075.53;6253619;22;20096;-75
2022/11/25 04:55:34;;;;;;;7.40;1.90;;;;;;;7.55;100.00;101087.28;6227767;22;20027;-75
2022/11/25 04:58:10;;;;;;;7.25;1.92;;;;;;;7.53;100.00;101086.94;6253378;22;20346;-75
2022/11/25 05:00:38;;;;;;;5.32;1.60;;;;;;;7.51;100.00;101083.22;6252363;22;20020;-75
2022/11/25 05:03:06;;;;;;;4.07;1.60;;;;;;;7.49;100.00;101088.91;6253058;22;20084;-75
2022/11/25 05:05:37;;;;;;;4.38;1.20;;;;;;;7.46;100.00;101089.72;6252990;22;20016;-75
2022/11/25 05:08:03;;;;;;;3.67;1.10;;;;;;;7.44;100.00;101099.25;6253366;22;20047;-75
2022/11/25 05:10:30;;;;;;;4.05;1.40;;;;;;;7.40;100.00;101099.31;6252678;22;20024;-75
2022/11/25 05:12:57;;;;;;;2.92;1.20;;;;;;;7.37;100.00;101100.13;6253115;22;20465;-75
2022/11/25 05:15:23;;;;;;;3.15;1.27;;;;;;;7.30;100.00;101098.34;6252737;22;20047;-75
2022/11/25 05:17:51;;;;;;;4.85;1.35;;;;;;;7.27;100.00;101106.38;6253389;22;20334;-75
2022/11/25 05:20:31;;;;;;;2.00;1.08;;;;;;;7.24;100.00;101107.91;6252767;22;20016;-75
2022/11/25 05:22:58;;;;;;;3.38;1.08;;;;;;;7.22;100.00;101110.22;6253185;22;20469;-75
2022/11/25 05:25:25;;;;;;;2.78;1.13;;;;;;;7.18;100.00;101108.81;6253024;22;20079;-75
2022/11/25 05:28:05;;;;;;;2.55;1.33;;;;;;;7.15;100.00;101118.31;6254755;22;20016;-75
2022/11/25 05:30:31;;;;;;;1.23;0.98;;;;;;;7.12;100.00;101113.84;6253648;22;20449;-75
2022/11/25 05:32:58;;;;;;;4.07;1.05;;;;;;;7.10;100.00;101118.03;6254625;22;20099;-76
2022/11/25 05:35:24;;;;;;;4.22;1.10;;;;;;;7.07;100.00;101119.59;6254343;22;20428;-76
2022/11/25 05:37:51;;;;;;;1.90;1.25;;;;;;;7.03;100.00;101124.22;6254843;22;20019;-75
2022/11/25 05:40:17;;;;;;;1.90;0.98;;;;;;;7.01;100.00;101126.50;6281764;22;20104;-75
2022/11/25 05:42:53;;;;;;;4.22;1.50;;;;;;;6.97;100.00;101120.53;6254172;22;20369;-75
2022/11/25 05:45:20;;;;;;;1.50;1.35;;;;;;;6.95;100.00;101128.13;6253352;22;20044;-75
2022/11/25 05:47:47;;;;;;;2.75;1.30;;;;;;;6.90;100.00;101129.34;6254439;22;20027;-75
2022/11/25 05:50:19;;;;;;;4.15;1.25;;;;;;;6.89;100.00;101137.69;6254243;22;20477;-75
2022/11/25 05:53:01;;;;;;;3.55;1.23;;;;;;;6.87;100.00;101130.13;6282051;22;20023;-75
2022/11/25 05:55:28;;;;;;;3.45;1.48;;;;;;;6.86;100.00;101133.19;6253933;22;20422;-76
2022/11/25 05:57:57;;;;;;;3.53;1.17;;;;;;;6.83;100.00;101134.75;6253849;22;20091;-76
2022/11/25 06:00:25;;;;;;;1.80;0.95;;;;;;;6.79;100.00;101147.31;6253889;22;20016;-75
2022/11/25 06:02:53;;;;;;;3.85;1.38;;;;;;;6.79;100.00;101136.72;6254264;22;20062;-75
2022/11/25 06:05:22;;;;;;;5.18;1.80;;;;;;;6.79;100.00;101144.66;6253911;22;20024;-75
2022/11/25 06:07:50;;;;;;;8.07;1.55;;;;;;;6.80;100.00;101146.13;6281877;22;20140;-75
2022/11/25 06:10:17;;;;;;;3.25;1.60;;;;;;;6.79;100.00;101149.97;6253803;22;20024;-75
2022/11/25 06:12:45;;;;;;;3.03;1.67;;;;;;;6.80;100.00;101148.78;6253922;22;20020;-75
2022/11/25 06:15:13;;;;;;;3.63;1.48;;;;;;;6.79;100.00;101149.22;6254282;22;20044;-76
2022/11/25 06:17:40;;;;;;;1.55;1.45;;;;;;;6.77;100.00;101154.91;6254029;22;20539;-76
2022/11/25 06:20:11;;;;;;;2.92;1.40;;;;;;;6.79;100.00;101149.97;6254388;22;20016;-75
2022/11/25 06:22:38;;;;;;;2.20;1.60;;;;;;;6.79;100.00;101157.91;6253667;22;20016;-75
2022/11/25 06:25:05;;;;;;;8.07;1.73;;;;;;;6.79;100.00;101163.19;6254442;22;20047;-76
2022/11/25 06:27:34;;;;;;;1.60;1.50;;;;;;;6.77;100.00;101165.50;6253288;22;20016;-75
2022/11/25 06:30:21;;;;;;;1.83;1.48;;;;;;;6.76;100.00;101165.88;6253941;22;20016;-75
2022/11/25 06:33:01;;;;;;;4.25;1.50;;;;;;;6.73;100.00;101164.78;6254259;22;20107;-75
2022/11/25 06:35:27;;;;;;;2.40;1.60;;;;;;;6.70;100.00;101173.53;6254143;22;20115;-75
2022/11/25 06:37:57;;;;;;;3.28;1.58;;;;;;;6.69;100.00;101172.03;6253920;22;20024;-75
2022/11/25 06:40:24;;;;;;;1.80;1.42;;;;;;;6.71;100.00;101179.56;6281205;22;20012;-75
2022/11/25 06:42:51;;;;;;;6.90;1.63;;;;;;;6.67;100.00;101180.38;6280748;22;20016;-75
2022/11/25 06:45:17;;;;;;;4.68;1.80;;;;;;;6.67;100.00;101190.22;6281412;22;20078;-75
2022/11/25 06:47:44;;;;;;;5.63;1.60;;;;;;;6.64;100.00;101194.41;6281614;22;20016;-75
2022/11/25 06:50:10;;;;;;;4.32;1.90;;;;;;;6.63;100.00;101198.19;6281570;22;20091;-75
2022/11/25 06:52:37;;;;;;;6.13;2.10;;;;;;;6.63;100.00;101205.38;6281339;22;20111;-76
2022/11/25 06:55:03;;;;;;;6.05;1.63;;;;;;;6.62;100.00;101209.16;6281675;22;20462;-75
2022/11/25 06:57:30;;;;;;;5.47;2.35;;;;;;;6.60;100.00;101206.19;6280784;22;20406;-76
2022/11/25 06:59:56;;;;;;;2.80;2.05;;;;;;;6.60;100.00;101212.22;6255467;22;20047;-77
2022/11/25 07:02:23;;;;;;;6.45;2.35;;;;;;;6.60;100.00;101211.47;6282252;22;20078;-77
2022/11/25 07:04:49;;;;;;;4.63;2.15;;;;;;;6.59;100.00;101212.63;6282023;22;20016;-76
2022/11/25 07:07:16;;;;;;;7.28;2.10;;;;;;;6.56;100.00;101216.06;6282313;22;20393;-75
2022/11/25 07:09:42;;;;;;;5.40;2.03;;;;;;;6.54;100.00;101221.75;6282033;22;20047;-75
2022/11/25 07:12:11;;;;;;;4.05;2.40;;;;;;;6.55;100.00;101222.50;6281591;22;20020;-75
2022/11/25 07:14:37;;;;;;;4.93;2.30;;;;;;;6.55;100.00;101230.44;6281942;22;20053;-75
2022/11/25 07:17:04;;;;;;;5.28;2.30;;;;;;;6.52;100.00;101234.63;6281997;22;20016;-75
2022/11/25 07:19:37;;;;;;;5.25;2.22;;;;;;;6.49;100.00;101235.41;6282002;22;20012;-75
2022/11/25 07:22:04;;;;;;;4.90;2.60;;;;;;;6.49;100.00;101245.25;6281959;22;20449;-75
2022/11/25 07:24:30;;;;;;;5.00;2.53;;;;;;;6.48;100.00;101246.41;6281606;22;20091;-75
2022/11/25 07:26:56;;;;;;;7.65;2.42;;;;;;;6.47;100.00;101243.00;6281366;22;20074;-76
2022/11/25 07:29:23;;;;;;;4.25;2.45;;;;;;;6.43;100.00;101252.13;6281905;22;20409;-76
2022/11/25 07:32:10;;;;;;;6.88;2.35;;;;;;;6.40;100.00;101251.03;6281791;22;20016;-75
2022/11/25 07:34:37;;;;;;;5.57;2.60;;;;;;;6.42;100.00;101258.56;6281823;22;20386;-76
2022/11/25 07:37:03;;;;;;;5.05;2.83;;;;;;;6.41;100.00;101247.22;6281992;22;20066;-78
2022/11/25 07:39:30;;;;;;;7.72;3.28;;;;;;;6.39;100.00;101257.50;6281276;22;20032;-77
2022/11/25 07:41:56;;;;;;;6.43;2.67;;;;;;;6.40;100.00;101271.47;6281359;22;20103;-77
2022/11/25 07:44:22;;;;;;;4.93;2.78;;;;;;;6.40;100.00;101268.81;6281747;22;20618;-76
2022/11/25 07:46:57;;;;;;;3.47;2.60;;;;;;;6.39;100.00;101267.31;6254688;22;20012;-77
2022/11/25 07:49:24;;;;;;;6.43;2.85;;;;;;;6.40;100.00;101279.41;6281404;22;20017;-76
2022/11/25 07:51:58;;;;;;;8.77;2.90;;;;;;;6.40;100.00;101287.31;6281875;22;20431;-76
2022/11/25 07:54:24;;;;;;;4.57;2.75;;;;;;;6.39;100.00;101285.81;6281167;22;20400;-76
2022/11/25 07:56:51;;;;;;;6.75;3.10;;;;;;;6.41;100.00;101291.44;6281351;22;20099;-75
2022/11/25 07:59:20;;;;;;;12.93;2.95;;;;;;;6.40;100.00;101298.63;6281772;22;20039;-75
2022/11/25 08:01:52;;;;;;;5.18;2.67;;;;;;;6.43;100.00;101305.78;6281541;22;20091;-75
2022/11/25 08:04:19;;;;;;;8.18;2.78;;;;;;;6.44;100.00;101312.56;6281773;22;20043;-76
2022/11/25 08:06:48;;;;;;;8.40;2.67;;;;;;;6.47;100.00;101303.84;6281601;22;20070;-74
2022/11/25 08:09:20;;;;;;;4.80;2.90;;;;;;;6.49;100.00;101311.38;6281142;22;20039;-74
2022/11/25 08:11:48;;;;;;;11.25;2.78;;;;;;;6.49;100.00;101308.72;6281644;22;20019;-75
2022/11/25 08:14:15;;;;;;;4.30;2.53;;;;;;;6.50;100.00;101307.59;6281606;22;20034;-75
2022/11/25 08:16:42;;;;;;;3.30;3.00;;;;;;;6.51;100.00;101311.72;6281470;22;20020;-75
2022/11/25 08:19:12;;;;;;;3.42;2.42;;;;;;;6.53;100.00;101314.72;6254085;22;20074;-75
2022/11/25 08:21:39;;;;;;;9.55;3.70;;;;;;;6.55;100.00;101334.34;6281626;22;20023;-74
2022/11/25 08:24:06;;;;;;;5.95;3.60;;;;;;;6.58;100.00;101332.81;6281017;22;20040;-74
2022/11/25 08:26:36;;;;;;;8.23;3.53;;;;;;;6.62;100.00;101344.84;6281367;22;20020;-74
2022/11/25 08:29:05;;;;;;;5.80;3.65;;;;;;;6.64;100.00;101339.16;6281652;22;20102;-74
2022/11/25 08:31:36;;;;;;;9.82;3.25;;;;;;;6.65;100.00;101349.34;6281197;22;20393;-76
2022/11/25 08:34:04;;;;;;;;;;;;;;;6.69;100.00;101344.00;6282082;22;20070;-75
2022/11/25 08:36:33;;;;;;;6.55;2.83;;;;;;;6.72;100.00;101347.75;6254077;22;19919;-74
2022/11/25 08:39:02;;;;;;;6.63;2.80;;;;;;;6.75;100.00;101355.66;6280918;22;20012;-76
2022/11/25 08:41:48;;;;;;;5.90;3.40;;;;;;;6.80;100.00;101359.75;6281038;22;20020;-75
2022/11/25 08:44:15;;;;;;;4.80;3.42;;;;;;;6.81;100.00;101369.91;6228597;22;20024;-75
2022/11/25 08:46:41;;;;;;;11.40;2.80;;;;;;;6.85;100.00;101361.94;6281333;22;20047;-75
2022/11/25 08:49:09;;;;;;;5.05;2.75;;;;;;;6.87;100.00;101357.75;6252966;22;20012;-75
2022/11/25 08:51:37;;;;;;;5.57;2.97;;;;;;;6.92;100.00;101365.25;6281288;22;20020;-74
2022/11/25 08:54:07;;;;;;;6.93;2.80;;;;;;;6.94;100.00;101373.53;6280963;22;20027;-75
2022/11/25 08:56:34;;;;;;;6.30;3.05;;;;;;;6.97;100.00;101374.66;6281414;22;20103;-75
2022/11/25 08:59:02;;;;;;;4.93;2.80;;;;;;;6.99;100.00;101383.69;6281407;22;20013;-74
2022/11/25 09:01:28;;;;;;;3.58;2.95;;;;;;;7.03;100.00;101386.28;6281496;22;20052;-75
2022/11/25 09:03:56;;;;;;;7.00;3.05;;;;;;;7.04;100.00;101374.56;6282985;22;20024;-78
2022/11/25 09:06:26;;;;;;;3.67;2.80;;;;;;;7.08;100.00;101377.91;6282817;22;20067;-76
2022/11/25 09:08:57;;;;;;;4.80;2.70;;;;;;;7.11;100.00;101386.94;6283078;22;20067;-77
2022/11/25 09:11:24;;;;;;;5.53;3.17;;;;;;;7.13;100.00;101392.59;6282781;22;20378;-74
2022/11/25 09:13:51;;;;;;;3.10;2.78;;;;;;;7.16;100.00;101394.44;6255724;22;20047;-73
2022/11/25 09:16:18;;;;;;;6.13;2.65;;;;;;;7.20;100.00;101408.34;6282629;22;20023;-77
2022/11/25 09:18:45;;;;;;;12.43;2.83;;;;;;;7.24;100.00;101417.00;6282778;22;20042;-74
2022/11/25 09:21:17;;;;;;;3.42;2.95;;;;;;;7.25;100.00;101411.31;6255065;22;20074;-75
2022/11/25 09:23:44;;;;;;;5.40;2.50;;;;;;;7.30;100.00;101415.41;6282651;22;20446;-77
2022/11/25 09:26:20;;;;;;;6.15;2.60;;;;;;;7.35;100.00;101420.25;6283096;22;20019;-75
2022/11/25 09:28:46;;;;;;;8.95;3.50;;;;;;;7.36;100.00;101421.75;6283046;22;20016;-77
2022/11/25 09:31:13;;;;;;;6.30;2.88;;;;;;;7.38;100.00;101419.47;6282611;22;20449;-77
2022/11/25 09:33:39;;;;;;;4.78;2.85;;;;;;;7.36;100.00;101433.09;6282684;22;20024;-75
2022/11/25 09:36:06;;;;;;;7.30;3.00;;;;;;;7.40;100.00;101432.31;6282287;22;20497;-75
2022/11/25 09:38:33;;;;;;;4.45;2.90;;;;;;;7.42;100.00;101433.41;6282564;22;20016;-75
2022/11/25 09:41:15;;;;;;;12.50;3.05;;;;;;;7.47;100.00;101445.47;6282012;22;20070;-75
2022/11/25 09:47:32;;;;;;;6.65;2.97;;;;;;;7.56;100.00;101451.75;6274473;22;20016;-75
2022/11/25 09:50:05;;;;;;;4.70;3.50;;;;;;;7.58;100.00;101446.06;6252534;22;20471;-77
2022/11/25 09:52:40;;;;;;;5.35;2.92;;;;;;;7.61;100.00;101447.88;6280217;22;20036;-75
2022/11/25 09:55:15;;;;;;;9.50;3.22;;;;;;;7.65;100.00;101448.59;6280019;22;20030;-75
2022/11/25 09:58:08;;;;;;;8.85;3.30;;;;;;;7.68;100.00;101453.09;6280570;22;20017;-75
2022/11/25 10:00:44;;;;;;;4.80;2.97;;;;;;;7.72;100.00;101455.69;6280907;22;20390;-77
2022/11/25 10:03:34;;;;;;;6.03;2.95;;;;;;;7.75;100.00;101460.94;6282565;22;20012;-77
2022/11/25 10:06:06;;;;;;;8.98;3.30;;;;;;;7.80;100.00;101462.38;6282176;22;20074;-75
2022/11/25 10:08:36;;;;;;;;;;;;;;;7.83;100.00;101461.56;6283093;22;20038;-75
2022/11/25 10:11:16;;;;;;;4.80;2.53;;;;;;;7.86;100.00;101476.69;6282619;22;20379;-75
2022/11/25 10:13:53;;;;;;;9.48;2.78;;;;;;;7.90;100.00;101462.22;6282333;22;20476;-77
2022/11/25 10:16:55;;;;;;;10.02;3.13;;;;;;;7.95;100.00;101467.06;6282694;22;20408;-77
2022/11/25 10:19:33;;;;;;;7.30;2.70;;;;;;;8.00;100.00;101468.47;6258189;22;20083;-77
2022/11/25 10:22:23;;;;;;;5.57;3.20;;;;;;;8.03;100.00;101470.34;6282645;22;20012;-77
2022/11/25 10:24:53;;;;;;;7.60;2.53;;;;;;;8.08;100.00;101475.19;6282333;22;20441;-77
2022/11/25 10:27:42;;;;;;;4.85;2.80;;;;;;;8.13;100.00;101477.38;6282626;22;20051;-75
2022/11/25 10:30:17;;;;;;;3.78;2.22;;;;;;;8.16;100.00;101481.88;6282527;22;20016;-75
2022/11/25 10:32:50;;;;;;;5.65;3.08;;;;;;;8.20;100.00;101476.50;6282178;22;20020;-75
2022/11/25 10:35:32;;;;;;;7.13;2.88;;;;;;;8.24;100.00;101483.25;6282049;22;20475;-77
2022/11/25 10:38:02;;;;;;;9.82;3.60;;;;;;;8.29;100.00;101490.00;6282459;22;20063;-77
2022/11/25 10:40:29;;;;;;;8.68;2.95;;;;;;;8.33;100.00;101496.03;6282449;22;20460;-75
2022/11/25 10:42:55;;;;;;;9.45;2.67;;;;;;;8.37;100.00;101488.00;6282373;22;20036;-75
2022/11/25 10:45:31;;;;;;;9.50;2.97;;;;;;;8.42;100.00;101488.25;6254816;22;20083;-75
2022/11/25 10:48:27;;;;;;;5.85;2.88;;;;;;;8.46;100.00;101498.81;6281769;22;20520;-75
2022/11/25 10:51:10;;;;;;;10.63;3.47;;;;;;;8.53;100.00;101501.34;6235191;22;20112;-76
2022/11/25 10:53:36;;;;;;;8.35;2.67;;;;;;;8.56;100.00;101505.84;6282441;22;20036;-75
2022/11/25 10:56:16;;;;;;;6.53;2.72;;;;;;;8.61;100.00;101506.13;6282320;22;20016;-75
2022/11/25 10:58:42;;;;;;;12.77;3.55;;;;;;;8.65;100.00;101522.75;6282319;22;20067;-75
2022/11/25 11:01:24;;;;;;;7.82;3.55;;;;;;;8.70;100.00;101518.88;6282202;22;20095;-75
2022/11/25 11:03:54;;;;;;;6.70;3.03;;;;;;;8.75;100.00;101531.69;6282054;22;20457;-76
2022/11/25 11:06:41;;;;;;;9.65;3.60;;;;;;;8.77;100.00;101534.69;6282410;22;20395;-76
2022/11/25 11:09:31;;;;;;;6.85;3.40;;;;;;;8.82;100.00;101536.84;6282376;22;20020;-76
2022/11/25 11:12:12;;;;;;;8.52;3.05;;;;;;;8.86;100.00;101536.78;6282200;22;20450;-75
2022/11/25 11:14:38;;;;;;;12.30;3.72;;;;;;;8.90;100.00;101529.50;6282485;22;20343;-75
2022/11/25 11:17:05;;;;;;;7.85;2.78;;;;;;;8.95;100.00;101535.09;6281690;22;20084;-75
2022/11/25 11:19:31;;;;;;;7.55;3.50;;;;;;;8.98;100.00;101544.88;6282221;22;20047;-75
2022/11/25 11:22:15;;;;;;;7.88;3.35;;;;;;;9.03;100.00;101557.69;6282376;22;20087;-76
2022/11/25 11:24:41;;;;;;;16.08;3.78;;;;;;;9.06;100.00;101561.44;6254895;22;20504;-75
2022/11/25 11:27:20;;;;;;;17.15;3.58;;;;;;;9.08;100.00;101563.69;6282037;22;20062;-76
2022/11/25 11:29:46;;;;;;;15.30;2.85;;;;;;;9.11;100.00;101568.94;6282245;22;20020;-75
2022/11/25 11:32:23;;;;;;;6.10;3.25;;;;;;;9.13;100.00;101565.88;6254682;22;20099;-76
2022/11/25 11:35:05;;;;;;;11.60;3.65;;;;;;;9.17;99.75;101567.31;6254962;22;20099;-76
2022/11/25 11:37:42;;;;;;;8.68;3.50;;;;;;;9.21;99.66;101583.91;6282349;22;20028;-76
2022/11/25 11:40:36;;;;;;;10.27;3.50;;;;;;;9.24;99.83;101574.38;6282190;22;20079;-76
2022/11/25 11:43:19;;;;;;;6.97;3.08;;;;;;;9.27;99.56;101587.59;6282232;22;20016;-76
2022/11/25 11:46:19;;;;;;;8.10;3.10;;;;;;;9.32;98.89;101595.09;6281598;22;20047;-76